createdAt,value
2019-01-30T00:01:16.944Z,98166.52
2019-01-30T00:03:46.095Z,98165.14
2019-01-30T00:06:15.194Z,98159.44
2019-01-30T00:08:44.259Z,98155.03
2019-01-30T00:11:13.752Z,98145.87
2019-01-30T00:13:42.798Z,98139.34
2019-01-30T00:16:11.931Z,98131.95
2019-01-30T00:18:41.033Z,98126.70
2019-01-30T00:21:10.212Z,98108.30
2019-01-30T00:23:39.552Z,98104.09
2019-01-30T00:26:08.724Z,98107.35
2019-01-30T00:28:37.968Z,98100.00
2019-01-30T00:31:07.169Z,98095.98
2019-01-30T00:33:36.356Z,98084.20
2019-01-30T00:36:05.632Z,98085.84
2019-01-30T00:38:34.771Z,98071.55
2019-01-30T00:41:04.129Z,98073.91
2019-01-30T00:43:33.216Z,98068.38
2019-01-30T00:46:02.438Z,98067.05
2019-01-30T00:48:31.680Z,98070.09
2019-01-30T00:51:00.919Z,98075.85
2019-01-30T00:53:30.127Z,98070.20
2019-01-30T00:55:59.404Z,98065.62
2019-01-30T00:58:28.505Z,98051.24
2019-01-30T01:00:58.404Z,98050.87
2019-01-30T01:03:27.492Z,98044.42
2019-01-30T01:05:56.654Z,98042.54
2019-01-30T01:08:25.682Z,98051.95
2019-01-30T01:10:54.838Z,98042.28
2019-01-30T01:13:23.975Z,98043.41
2019-01-30T01:15:53.055Z,98037.50
2019-01-30T01:18:23.039Z,98040.39
2019-01-30T01:20:52.760Z,98044.62
2019-01-30T01:23:21.968Z,98045.86
2019-01-30T01:25:51.041Z,98039.46
2019-01-30T01:28:20.132Z,98038.40
2019-01-30T01:30:49.581Z,98031.29
2019-01-30T01:33:18.625Z,98024.89
2019-01-30T01:35:47.832Z,98017.06
2019-01-30T01:38:17.036Z,98012.23
2019-01-30T01:40:46.235Z,98005.84
2019-01-30T01:43:15.456Z,97999.29
2019-01-30T01:45:44.706Z,97984.72
2019-01-30T01:48:13.931Z,97985.81
2019-01-30T01:50:43.276Z,97975.83
2019-01-30T01:53:12.461Z,97967.54
2019-01-30T01:55:41.553Z,97962.88
2019-01-30T01:58:10.827Z,97946.29
2019-01-30T02:00:40.058Z,97944.67
2019-01-30T02:03:09.266Z,97945.16
2019-01-30T02:05:38.680Z,97940.36
2019-01-30T02:08:07.840Z,97931.33
2019-01-30T02:10:37.534Z,97930.83
2019-01-30T02:13:07.010Z,97930.94
2019-01-30T02:15:36.364Z,97926.55
2019-01-30T02:18:05.613Z,97914.30
2019-01-30T02:20:34.991Z,97912.26
2019-01-30T02:23:04.121Z,97915.34
2019-01-30T02:25:33.164Z,97912.78
2019-01-30T02:28:02.416Z,97902.73
2019-01-30T02:30:31.685Z,97894.45
2019-01-30T02:33:01.046Z,97889.34
2019-01-30T02:35:30.156Z,97885.59
2019-01-30T02:37:59.367Z,97881.24
2019-01-30T02:40:28.624Z,97876.31
2019-01-30T02:42:57.939Z,97865.48
2019-01-30T02:45:27.354Z,97869.88
2019-01-30T02:47:56.556Z,97867.87
2019-01-30T02:50:25.754Z,97864.30
2019-01-30T02:52:54.876Z,97856.00
2019-01-30T02:55:23.923Z,97865.09
2019-01-30T02:57:52.994Z,97854.73
2019-01-30T03:00:30.306Z,97852.67
2019-01-30T03:02:59.489Z,97855.41
2019-01-30T03:05:29.056Z,97862.40
2019-01-30T03:07:58.495Z,97858.48
2019-01-30T03:10:27.566Z,97858.98
2019-01-30T03:12:56.752Z,97856.94
2019-01-30T03:15:25.813Z,97847.89
2019-01-30T03:17:54.990Z,97848.81
2019-01-30T03:20:25.954Z,97839.28
2019-01-30T03:22:55.153Z,97838.13
2019-01-30T03:25:25.224Z,97833.77
2019-01-30T03:27:54.418Z,97842.91
2019-01-30T03:30:26.031Z,97840.77
2019-01-30T03:32:55.115Z,97836.41
2019-01-30T03:35:24.378Z,97838.26
2019-01-30T03:37:53.433Z,97838.46
2019-01-30T03:40:22.713Z,97837.27
2019-01-30T03:42:51.884Z,97837.27
2019-01-30T03:45:22.380Z,97832.92
2019-01-30T03:47:51.459Z,97837.27
2019-01-30T03:50:20.616Z,97828.04
2019-01-30T03:52:49.657Z,97826.16
2019-01-30T03:55:18.843Z,97824.31
2019-01-30T03:57:48.218Z,97822.79
2019-01-30T04:00:19.493Z,97833.02
2019-01-30T04:02:48.637Z,97819.39
2019-01-30T04:05:17.766Z,97818.60
2019-01-30T04:07:46.963Z,97816.16
2019-01-30T04:10:18.558Z,97814.55
2019-01-30T04:12:47.693Z,97813.42
2019-01-30T04:15:16.801Z,97812.10
2019-01-30T04:17:45.882Z,97807.09
2019-01-30T04:20:16.956Z,97809.27
2019-01-30T04:22:46.403Z,97811.38
2019-01-30T04:25:15.486Z,97804.48
2019-01-30T04:27:46.512Z,97803.56
2019-01-30T04:30:18.232Z,97803.56
2019-01-30T04:32:47.463Z,97798.44
2019-01-30T04:35:16.563Z,97803.31
2019-01-30T04:37:45.696Z,97797.94
2019-01-30T04:40:16.915Z,97788.80
2019-01-30T04:42:46.143Z,97787.38
2019-01-30T04:45:18.257Z,97780.88
2019-01-30T04:47:47.343Z,97784.31
2019-01-30T04:50:16.500Z,97784.71
2019-01-30T04:52:45.551Z,97780.36
2019-01-30T04:55:15.133Z,97775.40
2019-01-30T04:57:44.402Z,97766.56
2019-01-30T05:00:16.328Z,97766.83
2019-01-30T05:02:45.630Z,97757.71
2019-01-30T05:05:14.862Z,97752.66
2019-01-30T05:07:44.095Z,97751.00
2019-01-30T05:10:13.483Z,97746.56
2019-01-30T05:12:42.748Z,97748.38
2019-01-30T05:15:14.597Z,97745.74
2019-01-30T05:17:43.979Z,97741.38
2019-01-30T05:20:14.722Z,97733.24
2019-01-30T05:22:44.460Z,97735.28
2019-01-30T05:25:14.285Z,97736.08
2019-01-30T05:27:43.604Z,97725.64
2019-01-30T05:30:22.392Z,97720.44
2019-01-30T05:32:51.634Z,97726.97
2019-01-30T05:35:20.888Z,97721.67
2019-01-30T05:37:51.353Z,97709.99
2019-01-30T05:40:20.918Z,97713.84
2019-01-30T05:42:50.075Z,97712.55
2019-01-30T05:45:19.304Z,97717.70
2019-01-30T05:47:48.386Z,97711.81
2019-01-30T05:50:17.406Z,97707.23
2019-01-30T05:52:46.519Z,97707.44
2019-01-30T05:55:16.521Z,97710.67
2019-01-30T05:57:45.821Z,97701.22
2019-01-30T06:00:22.616Z,97697.02
2019-01-30T06:02:52.068Z,97697.02
2019-01-30T06:05:21.240Z,97692.67
2019-01-30T06:07:50.592Z,97687.69
2019-01-30T06:10:19.804Z,97696.41
2019-01-30T06:12:48.928Z,97702.22
2019-01-30T06:15:18.380Z,97701.98
2019-01-30T06:17:47.422Z,97707.55
2019-01-30T06:20:19.513Z,97706.31
2019-01-30T06:22:49.005Z,97714.24
2019-01-30T06:25:18.098Z,97721.76
2019-01-30T06:27:47.478Z,97715.36
2019-01-30T06:30:17.877Z,97715.03
2019-01-30T06:32:47.004Z,97716.51
2019-01-30T06:35:16.229Z,97723.11
2019-01-30T06:37:45.359Z,97720.42
2019-01-30T06:40:35.125Z,97706.73
2019-01-30T06:43:04.455Z,97713.48
2019-01-30T06:45:33.517Z,97719.64
2019-01-30T06:48:02.611Z,97725.34
2019-01-30T06:50:31.679Z,97732.03
2019-01-30T06:53:01.043Z,97732.03
2019-01-30T06:55:30.144Z,97722.77
2019-01-30T06:57:59.339Z,97712.41
2019-01-30T07:00:29.061Z,97721.53
2019-01-30T07:02:59.728Z,97715.52
2019-01-30T07:05:29.012Z,97719.38
2019-01-30T07:07:58.194Z,97706.75
2019-01-30T07:10:30.529Z,97712.73
2019-01-30T07:12:59.628Z,97712.73
2019-01-30T07:15:28.867Z,97715.39
2019-01-30T07:17:58.049Z,97722.53
2019-01-30T07:20:27.121Z,97722.53
2019-01-30T07:22:56.736Z,97725.27
2019-01-30T07:25:26.261Z,97726.59
2019-01-30T07:27:55.305Z,97728.05
2019-01-30T07:30:36.064Z,97733.56
2019-01-30T07:33:06.399Z,97733.56
2019-01-30T07:35:35.457Z,97731.28
2019-01-30T07:38:04.665Z,97748.73
2019-01-30T07:40:33.760Z,97748.73
2019-01-30T07:43:02.909Z,97749.38
2019-01-30T07:45:32.653Z,97739.41
2019-01-30T07:48:01.899Z,97759.41
2019-01-30T07:50:32.959Z,97745.76
2019-01-30T07:53:02.104Z,97758.49
2019-01-30T07:55:31.186Z,97758.49
2019-01-30T07:58:00.420Z,97768.93
2019-01-30T08:00:33.808Z,97764.64
2019-01-30T08:03:02.961Z,97768.98
2019-01-30T08:05:32.065Z,97768.98
2019-01-30T08:08:01.272Z,97774.75
2019-01-30T08:10:30.340Z,97779.23
2019-01-30T08:12:59.531Z,97779.23
2019-01-30T08:15:28.553Z,97785.56
2019-01-30T08:17:57.823Z,97781.00
2019-01-30T08:20:27.109Z,97783.63
2019-01-30T08:22:56.266Z,97783.63
2019-01-30T08:25:25.703Z,97782.78
2019-01-30T08:27:55.273Z,97797.20
2019-01-30T08:30:27.406Z,97797.20
2019-01-30T08:33:04.257Z,97797.05
2019-01-30T08:35:29.552Z,97789.32
2019-01-30T08:37:58.737Z,97794.61
2019-01-30T08:40:27.779Z,97794.61
2019-01-30T08:42:57.036Z,97798.53
2019-01-30T08:45:27.949Z,97799.64
2019-01-30T08:47:57.350Z,97785.27
2019-01-30T08:50:26.877Z,97785.27
2019-01-30T08:52:56.132Z,97795.09
2019-01-30T08:55:25.319Z,97788.75
2019-01-30T08:57:54.570Z,97792.57
2019-01-30T09:00:25.003Z,97792.57
2019-01-30T09:02:54.117Z,97791.17
2019-01-30T09:05:23.139Z,97790.88
2019-01-30T09:07:52.161Z,97789.42
2019-01-30T09:10:22.279Z,97791.70
2019-01-30T09:12:51.520Z,97786.52
2019-01-30T09:15:21.855Z,97795.50
2019-01-30T09:17:50.920Z,97799.94
2019-01-30T09:20:23.445Z,97798.44
2019-01-30T09:22:52.745Z,97795.71
2019-01-30T09:25:23.892Z,97798.11
2019-01-30T09:27:53.588Z,97804.74
2019-01-30T09:30:28.090Z,97804.94
2019-01-30T09:32:57.357Z,97808.52
2019-01-30T09:35:26.683Z,97821.30
2019-01-30T09:37:56.241Z,97817.89
2019-01-30T09:40:25.825Z,97817.89
2019-01-30T09:42:55.234Z,97809.47
2019-01-30T09:45:25.052Z,97809.47
2019-01-30T09:47:54.272Z,97820.14
2019-01-30T09:50:23.787Z,97819.63
2019-01-30T09:52:53.281Z,97826.70
2019-01-30T09:55:22.386Z,97836.48
2019-01-30T09:57:51.573Z,97836.48
2019-01-30T10:00:29.483Z,97837.42
2019-01-30T10:02:58.558Z,97839.02
2019-01-30T10:05:27.736Z,97835.45
2019-01-30T10:07:56.863Z,97844.01
2019-01-30T10:10:28.042Z,97837.62
2019-01-30T10:12:57.097Z,97845.95
2019-01-30T10:15:32.268Z,97837.19
2019-01-30T10:18:01.490Z,97842.98
2019-01-30T10:20:30.945Z,97847.53
2019-01-30T10:23:00.027Z,97835.05
2019-01-30T10:25:30.389Z,97841.88
2019-01-30T10:27:59.457Z,97849.27
2019-01-30T10:30:30.915Z,97851.73
2019-01-30T10:33:00.088Z,97857.41
2019-01-30T10:35:29.123Z,97850.36
2019-01-30T10:37:58.181Z,97868.93
2019-01-30T10:40:27.398Z,97861.44
2019-01-30T10:42:57.460Z,97865.73
2019-01-30T10:45:27.546Z,97870.91
2019-01-30T10:47:57.067Z,97871.73
2019-01-30T10:50:27.532Z,97879.94
2019-01-30T10:52:56.672Z,97879.95
2019-01-30T10:55:27.616Z,97876.27
2019-01-30T10:57:59.303Z,97881.15
2019-01-30T11:00:31.034Z,97889.28
2019-01-30T11:03:00.201Z,97892.16
2019-01-30T11:05:29.232Z,97883.45
2019-01-30T11:07:58.572Z,97898.20
2019-01-30T11:10:27.952Z,97896.54
2019-01-30T11:12:57.160Z,97902.52
2019-01-30T11:15:27.314Z,97900.53
2019-01-30T11:17:57.349Z,97895.27
2019-01-30T11:20:26.999Z,97907.30
2019-01-30T11:22:56.040Z,97881.64
2019-01-30T11:25:28.153Z,97881.64
2019-01-30T11:27:57.483Z,97892.61
2019-01-30T11:30:26.657Z,97897.19
2019-01-30T11:32:55.808Z,97905.39
2019-01-30T11:35:24.905Z,97894.60
2019-01-30T11:37:54.090Z,97896.44
2019-01-30T11:40:27.120Z,97904.56
2019-01-30T11:42:56.417Z,97895.65
2019-01-30T11:45:31.566Z,97909.89
2019-01-30T11:48:01.052Z,97912.11
2019-01-30T11:50:30.095Z,97915.20
2019-01-30T11:52:59.506Z,97926.00
2019-01-30T11:55:28.582Z,97924.38
2019-01-30T11:57:57.815Z,97931.91
2019-01-30T12:00:30.847Z,97946.23
2019-01-30T12:02:59.969Z,97949.61
2019-01-30T12:05:29.157Z,97949.61
2019-01-30T12:07:58.536Z,97947.17
2019-01-30T12:10:27.799Z,97961.94
2019-01-30T12:12:56.811Z,97956.09
2019-01-30T12:15:27.336Z,97956.09
2019-01-30T12:17:56.401Z,97957.68
2019-01-30T12:20:25.487Z,97959.55
2019-01-30T12:22:54.645Z,97959.55
2019-01-30T12:25:24.197Z,97985.84
2019-01-30T12:27:54.584Z,97974.88
2019-01-30T12:30:25.398Z,97974.88
2019-01-30T12:32:54.552Z,97983.80
2019-01-30T12:35:23.859Z,97978.36
2019-01-30T12:37:52.934Z,97997.43
2019-01-30T12:40:22.287Z,97991.44
2019-01-30T12:42:51.444Z,97991.44
2019-01-30T12:45:31.280Z,97998.44
2019-01-30T12:48:03.358Z,98010.59
2019-01-30T12:50:33.377Z,98000.55
2019-01-30T12:53:04.522Z,98000.77
2019-01-30T12:55:33.625Z,98002.84
2019-01-30T12:58:03.280Z,98024.65
2019-01-30T13:00:37.867Z,98024.65
2019-01-30T13:03:07.585Z,98021.38
2019-01-30T13:05:37.278Z,98021.38
2019-01-30T13:08:07.051Z,98030.28
2019-01-30T13:10:36.365Z,98036.34
2019-01-30T13:13:05.695Z,98036.34
2019-01-30T13:15:34.784Z,98032.72
2019-01-30T13:18:15.507Z,98034.55
2019-01-30T13:20:35.238Z,98032.88
2019-01-30T13:23:04.498Z,98040.73
2019-01-30T13:25:36.444Z,98040.73
2019-01-30T13:28:06.776Z,98041.05
2019-01-30T13:30:43.472Z,98050.39
2019-01-30T13:33:13.072Z,98043.81
2019-01-30T13:35:42.136Z,98063.07
2019-01-30T13:38:11.345Z,98063.07
2019-01-30T13:40:42.045Z,98066.31
2019-01-30T13:43:11.184Z,98066.31
2019-01-30T13:45:40.280Z,98074.32
2019-01-30T13:48:15.527Z,98079.70
2019-01-30T13:50:44.647Z,98079.62
2019-01-30T13:53:14.418Z,98079.62
2019-01-30T13:55:43.809Z,98092.58
2019-01-30T13:58:13.155Z,98092.58
2019-01-30T14:00:42.248Z,98096.58
2019-01-30T14:03:11.403Z,98105.23
2019-01-30T14:05:40.782Z,98107.38
2019-01-30T14:08:12.135Z,98125.39
2019-01-30T14:10:42.094Z,98119.00
2019-01-30T14:13:11.168Z,98119.00
2019-01-30T14:15:40.755Z,98132.45
2019-01-30T14:18:09.811Z,98140.18
2019-01-30T14:20:38.937Z,98137.65
2019-01-30T14:23:08.382Z,98156.76
2019-01-30T14:25:37.747Z,98144.73
2019-01-30T14:28:07.085Z,98144.73
2019-01-30T14:30:38.648Z,98165.32
2019-01-30T14:33:08.157Z,98161.66
2019-01-30T14:35:40.381Z,98161.66
2019-01-30T14:38:09.624Z,98172.06
2019-01-30T14:40:38.952Z,98172.06
2019-01-30T14:43:08.213Z,98172.67
2019-01-30T14:45:37.385Z,98188.34
2019-01-30T14:48:06.493Z,98175.84
2019-01-30T14:50:35.915Z,98179.99
2019-01-30T14:53:05.651Z,98192.13
2019-01-30T14:55:34.865Z,98200.25
2019-01-30T14:58:05.296Z,98195.16
2019-01-30T15:00:34.591Z,98200.58
2019-01-30T15:03:03.709Z,98200.58
2019-01-30T15:05:32.966Z,98200.47
2019-01-30T15:08:02.172Z,98217.39
2019-01-30T15:10:32.142Z,98221.83
2019-01-30T15:13:01.263Z,98231.89
2019-01-30T15:15:31.917Z,98231.89
2019-01-30T15:18:01.086Z,98239.23
2019-01-30T15:20:34.920Z,98240.16
2019-01-30T15:23:04.575Z,98240.16
2019-01-30T15:25:34.020Z,98257.04
2019-01-30T15:28:03.654Z,98260.97
2019-01-30T15:30:37.774Z,98254.35
2019-01-30T15:33:07.260Z,98254.35
2019-01-30T15:35:36.385Z,98240.59
2019-01-30T15:38:07.676Z,98254.02
2019-01-30T15:40:36.729Z,98262.03
2019-01-30T15:43:05.938Z,98262.09
2019-01-30T15:45:34.992Z,98283.27
2019-01-30T15:48:04.176Z,98283.27
2019-01-30T15:50:34.413Z,98287.03
2019-01-30T15:53:05.967Z,98287.03
2019-01-30T15:55:35.508Z,98287.84
2019-01-30T15:58:07.974Z,98294.25
2019-01-30T16:01:00.648Z,98300.91
2019-01-30T16:03:29.751Z,98300.91
2019-01-30T16:05:58.947Z,98308.94
2019-01-30T16:08:27.997Z,98307.29
2019-01-30T16:10:57.548Z,98313.84
2019-01-30T16:13:26.629Z,98311.99
2019-01-30T16:15:58.730Z,98327.08
2019-01-30T16:18:33.680Z,98327.08
2019-01-30T16:21:23.678Z,98324.93
2019-01-30T16:23:52.711Z,98337.66
2019-01-30T16:26:21.790Z,98337.66
2019-01-30T16:28:51.021Z,98334.63
2019-01-30T16:31:20.348Z,98332.28
2019-01-30T16:33:49.425Z,98344.48
2019-01-30T16:36:18.850Z,98344.48
2019-01-30T16:38:47.878Z,98345.86
2019-01-30T16:41:17.236Z,98353.80
2019-01-30T16:43:46.430Z,98362.63
2019-01-30T16:46:15.533Z,98362.63
2019-01-30T16:48:44.976Z,98361.65
2019-01-30T16:51:15.993Z,98357.92
2019-01-30T16:53:45.302Z,98357.92
2019-01-30T16:56:14.414Z,98377.91
2019-01-30T16:58:43.544Z,98383.89
2019-01-30T17:01:13.829Z,98385.70
2019-01-30T17:03:43.097Z,98385.70
2019-01-30T17:06:12.386Z,98401.49
2019-01-30T17:08:41.591Z,98395.45
2019-01-30T17:11:10.815Z,98395.45
2019-01-30T17:13:40.012Z,98404.22
2019-01-30T17:16:09.240Z,98404.22
2019-01-30T17:18:38.466Z,98411.30
2019-01-30T17:21:07.554Z,98417.39
2019-01-30T17:23:37.055Z,98407.33
2019-01-30T17:26:08.084Z,98412.45
2019-01-30T17:28:39.370Z,98412.64
2019-01-30T17:31:14.909Z,98426.31
2019-01-30T17:33:43.978Z,98426.52
2019-01-30T17:36:18.502Z,98436.36
2019-01-30T17:38:54.600Z,98426.91
2019-01-30T17:42:02.662Z,98443.88
2019-01-30T17:44:39.020Z,98443.88
2019-01-30T17:47:14.410Z,98448.13
2019-01-30T17:50:03.104Z,98452.13
2019-01-30T17:52:44.109Z,98450.00
2019-01-30T17:55:26.340Z,98443.16
2019-01-30T17:58:03.497Z,98460.13
2019-01-30T18:00:53.673Z,98462.48
2019-01-30T18:03:36.203Z,98462.48
2019-01-30T18:06:12.869Z,98469.48
2019-01-30T18:08:41.940Z,98468.06
2019-01-30T18:11:11.051Z,98467.77
2019-01-30T18:13:40.122Z,98479.55
2019-01-30T18:16:09.575Z,98477.59
2019-01-30T18:18:38.627Z,98477.59
2019-01-30T18:21:07.781Z,98475.72
2019-01-30T18:23:38.005Z,98475.72
2019-01-30T18:26:07.056Z,98468.66
2019-01-30T18:28:36.166Z,98477.54
2019-01-30T18:31:05.602Z,98488.52
2019-01-30T18:33:35.117Z,98489.72
2019-01-30T18:36:04.649Z,98489.72
2019-01-30T18:38:36.044Z,98499.92
2019-01-30T18:41:07.054Z,98499.08
2019-01-30T18:43:36.467Z,98507.55
2019-01-30T18:46:05.619Z,98507.55
2019-01-30T18:48:34.829Z,98504.22
2019-01-30T18:51:05.044Z,98510.54
2019-01-30T18:53:34.089Z,98506.77
2019-01-30T18:56:03.581Z,98512.69
2019-01-30T18:58:32.879Z,98512.69
2019-01-30T19:01:02.093Z,98510.48
2019-01-30T19:03:31.248Z,98506.89
2019-01-30T19:06:02.787Z,98506.53
2019-01-30T19:08:31.855Z,98525.41
2019-01-30T19:11:00.969Z,98525.41
2019-01-30T19:13:30.171Z,98519.86
2019-01-30T19:15:59.449Z,98525.08
2019-01-30T19:18:28.738Z,98528.41
2019-01-30T19:20:58.045Z,98528.41
2019-01-30T19:23:27.269Z,98532.66
2019-01-30T19:25:56.438Z,98525.69
2019-01-30T19:28:25.589Z,98525.69
2019-01-30T19:30:54.617Z,98534.48
2019-01-30T19:33:23.845Z,98530.05
2019-01-30T19:35:53.121Z,98530.41
2019-01-30T19:38:22.352Z,98530.41
2019-01-30T19:40:51.554Z,98533.50
2019-01-30T19:43:20.670Z,98525.16
2019-01-30T19:45:49.802Z,98525.16
2019-01-30T19:48:19.022Z,98523.48
2019-01-30T19:50:48.375Z,98519.45
2019-01-30T19:53:17.590Z,98514.82
2019-01-30T19:55:46.619Z,98514.82
2019-01-30T19:58:15.899Z,98527.98
2019-01-30T20:00:49.076Z,98514.82
2019-01-30T20:03:21.259Z,98513.60
2019-01-30T20:05:50.430Z,98516.03
2019-01-30T20:08:19.773Z,98516.03
2019-01-30T20:10:48.832Z,98510.91
2019-01-30T20:13:18.166Z,98510.38
2019-01-30T20:15:47.255Z,98506.38
2019-01-30T20:18:16.472Z,98506.38
2019-01-30T20:20:45.790Z,98506.24
2019-01-30T20:23:17.928Z,98496.34
2019-01-30T20:25:47.252Z,98494.05
2019-01-30T20:28:16.339Z,98504.42
2019-01-30T20:30:45.828Z,98504.42
2019-01-30T20:33:14.995Z,98509.52
2019-01-30T20:35:44.433Z,98507.81
2019-01-30T20:38:13.823Z,98507.81
2019-01-30T20:40:43.039Z,98503.59
2019-01-30T20:43:12.620Z,98505.97
2019-01-30T20:45:43.274Z,98505.97
2019-01-30T20:48:12.411Z,98512.22
2019-01-30T20:50:41.531Z,98512.22
2019-01-30T20:53:10.663Z,98511.91
2019-01-30T20:55:39.750Z,98501.59
2019-01-30T20:58:08.933Z,98501.04
2019-01-30T21:00:39.723Z,98501.04
2019-01-30T21:03:09.534Z,98499.54
2019-01-30T21:05:38.877Z,98491.98
2019-01-30T21:08:08.223Z,98507.03
2019-01-30T21:10:39.913Z,98507.03
2019-01-30T21:13:09.694Z,98507.37
2019-01-30T21:15:38.827Z,98507.37
2019-01-30T21:18:08.019Z,98502.84
2019-01-30T21:20:37.301Z,98502.34
2019-01-30T21:23:06.512Z,98511.60
2019-01-30T21:25:35.631Z,98500.64
2019-01-30T21:28:04.697Z,98502.41
2019-01-30T21:30:35.744Z,98502.41
2019-01-30T21:33:05.483Z,98489.06
2019-01-30T21:35:34.991Z,98501.53
2019-01-30T21:38:04.431Z,98495.66
2019-01-30T21:40:33.520Z,98497.30
2019-01-30T21:43:02.764Z,98487.02
2019-01-30T21:45:32.236Z,98491.94
2019-01-30T21:48:01.373Z,98489.45
2019-01-30T21:50:30.524Z,98504.59
2019-01-30T21:52:59.675Z,98504.59
2019-01-30T21:55:28.774Z,98505.33
2019-01-30T21:57:58.272Z,98505.05
2019-01-30T22:00:28.755Z,98503.68
2019-01-30T22:02:58.086Z,98502.26
2019-01-30T22:05:27.615Z,98502.26
2019-01-30T22:08:00.997Z,98502.00
2019-01-30T22:10:29.022Z,98501.61
2019-01-30T22:12:58.353Z,98500.22
2019-01-30T22:15:27.475Z,98506.58
2019-01-30T22:17:56.826Z,98501.78
2019-01-30T22:20:26.967Z,98499.43
2019-01-30T22:22:56.272Z,98497.81
2019-01-30T22:25:27.143Z,98497.39
2019-01-30T22:27:56.634Z,98486.70
2019-01-30T22:30:33.756Z,98494.31
2019-01-30T22:33:02.946Z,98490.76
2019-01-30T22:35:31.994Z,98487.78
2019-01-30T22:38:11.558Z,98489.27
2019-01-30T22:40:32.596Z,98488.32
2019-01-30T22:43:02.022Z,98487.42
2019-01-30T22:45:31.166Z,98487.87
2019-01-30T22:48:00.236Z,98488.66
2019-01-30T22:50:29.398Z,98490.10
2019-01-30T22:52:58.695Z,98490.91
2019-01-30T22:55:27.749Z,98483.14
2019-01-30T22:57:56.949Z,98494.47
2019-01-30T23:01:13.970Z,98487.75
2019-01-30T23:04:05.986Z,98491.48
2019-01-30T23:07:20.308Z,98486.64
2019-01-30T23:10:41.878Z,98490.98
2019-01-30T23:13:34.198Z,98491.76
2019-01-30T23:16:30.344Z,98479.13
2019-01-30T23:19:10.679Z,98478.33
2019-01-30T23:22:11.700Z,98488.27
2019-01-30T23:25:39.947Z,98479.69
2019-01-30T23:29:02.156Z,98479.13
2019-01-30T23:32:08.009Z,98473.83
2019-01-30T23:35:18.201Z,98480.09
2019-01-30T23:38:09.435Z,98474.24
2019-01-30T23:41:04.889Z,98469.33
2019-01-30T23:44:15.536Z,98473.83
2019-01-30T23:47:17.525Z,98465.97
2019-01-30T23:50:11.588Z,98467.65
2019-01-30T23:53:23.818Z,98469.15
2019-01-30T23:56:03.653Z,98467.23
2019-01-30T23:58:45.181Z,98462.97
